Time;durP1;ratioP1;P1;durP2;ratioP2;P2;SDS_P1;SDS_P2;PMS_P1;PMS_P2;Temp;Humidity;BMP_temperature;BMP_pressure;BME280_temperature;BME280_humidity;BME280_pressure;Samples;Min_cycle;Max_cycle;Signal;HPM_P1;HPM_P2
2023/02/13 00:02:23;;;;;;;;;;;;;;;6.37;88.61;100973.47;5060910;28;20443;-73
2023/02/13 00:04:48;;;;;;;;;;;;;;;6.41;88.29;100964.19;5055844;28;19928;-73
2023/02/13 00:07:14;;;;;;;;;;;;;;;6.38;88.07;100969.81;5053778;28;20002;-72
2023/02/13 00:09:39;;;;;;;;;;;;;;;6.40;88.62;100962.50;5053658;28;19920;-73
2023/02/13 00:12:05;;;;;;;;;;;;;;;6.38;88.46;100961.03;5061416;28;20888;-73
2023/02/13 00:14:33;;;;;;;;;;;;;;;6.38;88.42;100956.56;5065470;28;19928;-73
2023/02/13 00:16:59;;;;;;;;;;;;;;;6.36;88.64;100955.91;5060566;28;20019;-73
2023/02/13 00:19:24;;;;;;;;;;;;;;;6.36;89.11;100955.91;5062021;28;19987;-73
2023/02/13 00:21:49;;;;;;;;;;;;;;;6.26;88.87;100952.63;5059129;28;19921;-76
2023/02/13 00:24:15;;;;;;;;;;;;;;;6.24;88.74;100956.44;5065335;28;19924;-74
2023/02/13 00:26:40;;;;;;;;;;;;;;;6.11;89.54;100959.59;5058515;28;19928;-75
2023/02/13 00:29:08;;;;;;;;;;;;;;;6.11;90.02;100962.25;5061241;28;21994;-74
2023/02/13 00:31:33;;;;;;;;;;;;;;;6.17;89.16;100966.03;5057622;28;19950;-75
2023/02/13 00:33:59;;;;;;;;;;;;;;;6.17;90.00;100963.38;5064054;28;20365;-75
2023/02/13 00:36:24;;;;;;;;;;;;;;;6.24;89.41;100956.44;5062499;28;19962;-74
2023/02/13 00:38:50;;;;;;;;;;;;;;;6.12;89.68;100952.44;5062922;28;19929;-77
2023/02/13 00:41:16;;;;;;;;;;;;;;;6.01;89.26;100957.13;5055695;28;19927;-76
2023/02/13 00:43:41;;;;;;;;;;;;;;;6.03;89.73;100956.94;5057695;28;19924;-77
2023/02/13 00:46:06;;;;;;;;;;;;;;;5.95;90.94;100965.75;5055002;28;20293;-76
2023/02/13 00:48:32;;;;;;;;;;;;;;;6.00;89.69;100959.94;5058910;28;19920;-77
2023/02/13 00:50:58;;;;;;;;;;;;;;;6.03;90.19;100960.44;5057795;28;20400;-73
2023/02/13 00:53:24;;;;;;;;;;;;;;;5.99;90.28;100961.75;5057466;28;19920;-72
2023/02/13 00:55:50;;;;;;;;;;;;;;;6.12;90.55;100963.06;5056939;28;19974;-72
2023/02/13 00:58:15;;;;;;;;;;;;;;;5.69;91.12;100957.09;5058001;28;20373;-72
2023/02/13 01:00:41;;;;;;;;;;;;;;;5.42;92.64;100960.06;5059962;28;20495;-72
2023/02/13 01:03:06;;;;;;;;;;;;;;;5.52;93.32;100955.44;5069516;28;19928;-72
2023/02/13 01:05:32;;;;;;;;;;;;;;;5.91;90.91;100959.13;5058892;28;20022;-73
2023/02/13 01:07:58;;;;;;;;;;;;;;;5.69;91.67;100959.75;5065184;28;19923;-73
2023/02/13 01:10:23;;;;;;;;;;;;;;;5.75;92.38;100961.75;5065450;28;20305;-78
2023/02/13 01:12:48;;;;;;;;;;;;;;;6.16;89.08;100962.56;5073225;28;19916;-77
2023/02/13 01:15:14;;;;;;;;;;;;;;;6.22;89.12;100958.41;5060322;28;19993;-77
2023/02/13 01:17:39;;;;;;;;;;;;;;;6.23;89.32;100962.72;5068810;28;19970;-77
2023/02/13 01:20:05;;;;;;;;;;;;;;;6.23;88.85;100960.91;5063447;28;19924;-77
2023/02/13 01:22:31;;;;;;;;;;;;;;;5.64;91.81;100958.56;5061218;28;20427;-77
2023/02/13 01:24:56;;;;;;;;;;;;;;;5.47;92.95;100968.34;5068077;28;19928;-77
2023/02/13 01:27:21;;;;;;;;;;;;;;;5.76;92.73;100963.41;5064245;28;19936;-77
2023/02/13 01:29:47;;;;;;;;;;;;;;;6.15;90.10;100962.72;5068153;28;19920;-78
2023/02/13 01:32:12;;;;;;;;;;;;;;;6.22;88.46;100961.06;5056166;28;20019;-77
2023/02/13 01:34:37;;;;;;;;;;;;;;;5.81;90.18;100962.91;5066749;28;20029;-78
2023/02/13 01:37:03;;;;;;;;;;;;;;;5.88;90.96;100962.09;5066655;28;20293;-77
2023/02/13 01:39:28;;;;;;;;;;;;;;;5.99;90.89;100953.81;5072899;28;19943;-78
2023/02/13 01:41:53;;;;;;;;;;;;;;;6.22;88.92;100953.94;5070037;28;19962;-77
2023/02/13 01:44:42;;;;;;;;;;;;;;;6.27;87.97;100954.25;5062556;28;19925;-77
2023/02/13 01:47:08;;;;;;;;;;;;;;;6.20;89.05;100945.34;5056890;28;19924;-77
2023/02/13 01:49:33;;;;;;;;;;;;;;;6.28;88.76;100949.78;5065988;28;19924;-77
2023/02/13 01:51:59;;;;;;;;;;;;;;;6.29;88.29;100952.25;5069760;28;20381;-77
2023/02/13 01:54:31;;;;;;;;;;;;;;;6.23;88.41;100954.75;5063289;28;20297;-77
2023/02/13 01:56:59;;;;;;;;;;;;;;;6.24;88.43;100937.88;5058545;28;20787;-77
2023/02/13 01:59:29;;;;;;;;;;;;;;;6.16;89.57;100945.84;5068362;28;19930;-78
2023/02/13 02:01:55;;;;;;;;;;;;;;;6.14;89.60;100939.88;5063140;28;19917;-77
2023/02/13 02:04:28;;;;;;;;;;;;;;;6.19;89.74;100942.84;5064597;28;19932;-77
2023/02/13 02:06:56;;;;;;;;;;;;;;;6.17;88.43;100937.72;5065636;28;19920;-77
2023/02/13 02:09:28;;;;;;;;;;;;;;;6.19;88.98;100937.53;5067663;28;19916;-78
2023/02/13 02:11:56;;;;;;;;;;;;;;;6.19;89.36;100932.22;5061320;28;19924;-77
2023/02/13 02:14:22;;;;;;;;;;;;;;;6.24;88.97;100936.06;5063979;28;20397;-77
2023/02/13 02:16:47;;;;;;;;;;;;;;;6.24;88.36;100940.50;5055699;28;20017;-77
2023/02/13 02:19:21;;;;;;;;;;;;;;;6.30;88.23;100930.06;5067443;28;20364;-77
2023/02/13 02:21:56;;;;;;;;;;;;;;;6.21;88.32;100928.41;5064867;28;19923;-76
2023/02/13 02:24:27;;;;;;;;;;;;;;;6.21;88.50;100930.25;5064040;28;19920;-75
2023/02/13 02:27:10;;;;;;;;;;;;;;;6.12;89.17;100921.47;5060551;28;19950;-75
2023/02/13 02:29:41;;;;;;;;;;;;;;;6.12;89.12;100925.94;5072247;28;20371;-75
2023/02/13 02:32:14;;;;;;;;;;;;;;;6.16;88.79;100917.50;5058798;28;19917;-76
2023/02/13 02:34:42;;;;;;;;;;;;;;;6.08;90.04;100917.50;5061246;28;19927;-75
2023/02/13 02:37:24;;;;;;;;;;;;;;;6.15;89.02;100925.63;5062071;28;19924;-76
2023/02/13 02:39:52;;;;;;;;;;;;;;;6.16;89.13;100919.34;5052134;28;19924;-75
2023/02/13 02:42:35;;;;;;;;;;;;;;;6.17;89.72;100918.31;5059984;28;19916;-75
2023/02/13 02:45:07;;;;;;;;;;;;;;;6.10;89.67;100926.13;5059089;28;19924;-76
2023/02/13 02:50:47;;;;;;;;;;;;;;;6.02;89.17;100919.03;5032866;28;20050;-73
2023/02/13 02:53:12;;;;;;;;;;;;;;;5.90;89.77;100916.88;5039631;28;22110;-73
2023/02/13 02:55:52;;;;;;;;;;;;;;;5.90;90.82;100916.88;5055938;28;19967;-73
2023/02/13 03:07:00;;;;;;;;;;;;;;;5.72;91.53;100914.38;5064275;28;19931;-72
2023/02/13 03:15:00;;;;;;;;;;;;;;;5.81;91.21;100909.91;5060357;28;19962;-73
2023/02/13 03:23:03;;;;;;;;;;;;;;;5.72;91.35;100908.25;5061982;28;20384;-74
2023/02/13 03:25:34;;;;;;;;;;;;;;;5.77;91.34;100909.41;5065325;28;19923;-74
2023/02/13 03:31:13;;;;;;;;;;;;;;;5.64;91.16;100917.03;5059704;28;20553;-74
2023/02/13 03:33:59;;;;;;;;;;;;;;;5.49;91.77;100918.69;5058476;28;19924;-74
2023/02/13 03:39:43;;;;;;;;;;;;;;;5.49;91.44;100912.56;5062235;28;20456;-74
2023/02/13 03:42:13;;;;;;;;;;;;;;;5.79;90.46;100915.38;5062330;28;19924;-73
2023/02/13 03:44:39;;;;;;;;;;;;;;;5.71;90.32;100904.78;5061699;28;19927;-73
2023/02/13 03:47:06;;;;;;;;;;;;;;;5.79;90.42;100920.66;5055431;28;20276;-74
2023/02/13 03:52:27;;;;;;;;;;;;;;;5.80;90.87;100916.19;5063483;28;19950;-74
2023/02/13 04:00:30;;;;;;;;;;;;;;;5.75;90.51;100906.09;5061025;28;19970;-76
2023/02/13 04:03:14;;;;;;;;;;;;;;;5.65;90.35;100918.69;5061775;28;19920;-76
2023/02/13 04:05:42;;;;;;;;;;;;;;;5.76;90.27;100905.13;5057217;28;19920;-76
2023/02/13 04:08:07;;;;;;;;;;;;;;;5.61;90.87;100912.09;5054839;28;21332;-75
2023/02/13 04:10:35;;;;;;;;;;;;;;;5.59;90.91;100907.94;5054054;28;19927;-73
2023/02/13 04:13:13;;;;;;;;;;;;;;;5.54;91.64;100920.84;5061225;28;19917;-73
2023/02/13 04:15:44;;;;;;;;;;;;;;;5.61;90.41;100922.69;5059640;28;19917;-75
2023/02/13 04:18:41;;;;;;;;;;;;;;;5.57;90.59;100923.97;5064544;28;19921;-74
2023/02/13 04:21:07;;;;;;;;;;;;;;;5.63;90.49;100928.63;5037491;28;19916;-74
2023/02/13 04:23:32;;;;;;;;;;;;;;;5.51;91.58;100927.28;5063329;28;19928;-74
2023/02/13 04:25:59;;;;;;;;;;;;;;;5.57;91.31;100929.28;5059279;28;19928;-74
2023/02/13 04:28:24;;;;;;;;;;;;;;;5.64;91.01;100924.97;5059852;28;20440;-74
2023/02/13 04:30:50;;;;;;;;;;;;;;;5.76;90.30;100926.31;5058721;28;19928;-75
2023/02/13 04:33:15;;;;;;;;;;;;;;;5.64;90.64;100921.50;5055380;28;19974;-74
2023/02/13 04:35:41;;;;;;;;;;;;;;;5.73;89.63;100924.00;5055007;28;20388;-74
2023/02/13 04:38:06;;;;;;;;;;;;;;;5.49;90.98;100931.94;5058001;28;19924;-74
2023/02/13 04:40:31;;;;;;;;;;;;;;;5.20;92.16;100927.09;5065313;28;20292;-74
2023/02/13 04:42:56;;;;;;;;;;;;;;;5.29;92.21;100930.56;5063744;28;19924;-74
2023/02/13 04:45:22;;;;;;;;;;;;;;;5.28;91.68;100924.47;5064152;28;19952;-74
2023/02/13 04:47:51;;;;;;;;;;;;;;;5.10;91.86;100925.59;5066123;28;19928;-74
2023/02/13 04:50:16;;;;;;;;;;;;;;;5.42;92.26;100919.53;5058411;28;20016;-74
2023/02/13 04:52:41;;;;;;;;;;;;;;;5.08;92.14;100917.81;5066623;28;20011;-76
2023/02/13 04:55:06;;;;;;;;;;;;;;;5.28;91.69;100921.00;5066944;28;20558;-77
2023/02/13 04:57:32;;;;;;;;;;;;;;;5.12;92.20;100918.31;5059611;28;19924;-76
2023/02/13 04:59:57;;;;;;;;;;;;;;;5.23;91.88;100910.91;5062520;28;19928;-76
2023/02/13 05:02:22;;;;;;;;;;;;;;;5.37;91.20;100914.72;5066193;28;19924;-76
2023/02/13 05:04:47;;;;;;;;;;;;;;;5.03;91.40;100921.91;5066854;28;19924;-77
2023/02/13 05:07:12;;;;;;;;;;;;;;;5.38;91.54;100916.34;5062671;28;20158;-76
2023/02/13 05:09:38;;;;;;;;;;;;;;;5.19;91.04;100921.97;5065157;28;19921;-76
2023/02/13 05:12:03;;;;;;;;;;;;;;;5.35;91.54;100922.00;5064460;28;19940;-75
2023/02/13 05:14:28;;;;;;;;;;;;;;;5.40;91.39;100910.88;5062727;28;19920;-75
2023/02/13 05:16:53;;;;;;;;;;;;;;;5.41;90.79;100924.00;5064102;28;19939;-72
2023/02/13 05:19:19;;;;;;;;;;;;;;;5.10;91.49;100920.28;5063439;28;19941;-72
2023/02/13 05:24:28;;;;;;;;;;;;;;;5.30;91.57;100929.59;5064202;28;20081;-72
2023/02/13 05:26:53;;;;;;;;;;;;;;;5.11;91.49;100920.13;5066194;28;20011;-74
2023/02/13 05:29:18;;;;;;;;;;;;;;;5.33;90.74;100918.66;5063202;28;20011;-74
2023/02/13 05:32:01;;;;;;;;;;;;;;;5.20;91.18;100918.31;5066213;28;19920;-73
2023/02/13 05:34:27;;;;;;;;;;;;;;;5.03;91.60;100921.91;5065490;28;19920;-74
2023/02/13 05:36:52;;;;;;;;;;;;;;;5.02;92.73;100929.03;5066437;28;19970;-74
2023/02/13 05:39:18;;;;;;;;;;;;;;;5.24;91.48;100924.97;5060798;28;19936;-73
2023/02/13 05:41:44;;;;;;;;;;;;;;;5.17;90.19;100919.50;5065499;28;19928;-74
2023/02/13 05:44:10;;;;;;;;;;;;;;;4.69;92.62;100929.94;5065301;28;19920;-73
2023/02/13 05:46:38;;;;;;;;;;;;;;;5.20;91.10;100921.78;5064014;28;19924;-72
2023/02/13 05:49:04;;;;;;;;;;;;;;;5.11;91.09;100924.59;5063501;28;19920;-73
2023/02/13 05:51:29;;;;;;;;;;;;;;;5.08;91.58;100920.47;5059112;28;20005;-73
2023/02/13 05:53:54;;;;;;;;;;;;;;;5.13;91.21;100922.63;5062868;28;20383;-74
2023/02/13 05:56:20;;;;;;;;;;;;;;;4.95;90.92;100924.56;5062913;28;19923;-72
2023/02/13 05:58:45;;;;;;;;;;;;;;;4.82;91.86;100924.19;5060760;28;19921;-74
2023/02/13 06:01:10;;;;;;;;;;;;;;;4.41;92.71;100926.66;5061548;28;19920;-70
2023/02/13 06:03:35;;;;;;;;;;;;;;;4.61;92.87;100924.59;5065355;28;19938;-73
2023/02/13 06:06:01;;;;;;;;;;;;;;;4.75;92.45;100928.44;5065592;28;19927;-72
2023/02/13 06:08:26;;;;;;;;;;;;;;;4.68;91.79;100930.06;5064550;28;19920;-72
2023/02/13 06:10:52;;;;;;;;;;;;;;;5.08;92.04;100931.06;5064735;28;19923;-72
2023/02/13 06:13:17;;;;;;;;;;;;;;;5.17;90.95;100931.91;5058602;28;19928;-72
2023/02/13 06:15:43;;;;;;;;;;;;;;;5.22;90.21;100930.41;5067113;28;19951;-74
2023/02/13 06:18:08;;;;;;;;;;;;;;;5.05;90.12;100935.81;5065012;28;19924;-74
2023/02/13 06:20:33;;;;;;;;;;;;;;;5.16;91.60;100928.41;5067113;28;19927;-74
2023/02/13 06:22:58;;;;;;;;;;;;;;;5.07;89.87;100939.97;5062864;28;19926;-74
2023/02/13 06:25:24;;;;;;;;;;;;;;;4.99;90.45;100939.13;5062175;28;19927;-75
2023/02/13 06:27:49;;;;;;;;;;;;;;;4.85;92.11;100939.75;5058766;28;19921;-74
2023/02/13 06:30:15;;;;;;;;;;;;;;;4.67;92.88;100950.44;5058006;28;19982;-74
2023/02/13 06:32:40;;;;;;;;;;;;;;;4.92;92.01;100951.31;5057997;28;19935;-73
2023/02/13 06:35:06;;;;;;;;;;;;;;;4.38;92.41;100956.06;5063434;28;21494;-74
2023/02/13 06:37:32;;;;;;;;;;;;;;;4.12;93.53;100957.91;5064652;28;19923;-76
2023/02/13 06:39:57;;;;;;;;;;;;;;;4.83;92.86;100957.56;5071126;28;20003;-74
2023/02/13 06:42:22;;;;;;;;;;;;;;;4.89;91.67;100951.66;5065739;28;19921;-74
2023/02/13 06:44:47;;;;;;;;;;;;;;;5.22;90.41;100956.06;5053724;28;19931;-72
2023/02/13 06:47:13;;;;;;;;;;;;;;;4.87;89.86;100956.28;5056314;28;20426;-74
2023/02/13 06:49:38;;;;;;;;;;;;;;;4.91;89.99;100955.81;5060908;28;20327;-74
2023/02/13 06:52:03;;;;;;;;;;;;;;;5.16;90.27;100959.34;5064784;28;20401;-74
2023/02/13 06:54:28;;;;;;;;;;;;;;;4.39;91.71;100970.94;5072211;28;20399;-75
2023/02/13 06:56:54;;;;;;;;;;;;;;;5.00;91.56;100960.13;5065108;28;19924;-74
2023/02/13 06:59:19;;;;;;;;;;;;;;;5.24;90.68;100962.03;5065521;28;19921;-74
2023/02/13 07:01:44;;;;;;;;;;;;;;;5.12;90.67;100973.88;5059082;28;20388;-74
2023/02/13 07:04:09;;;;;;;;;;;;;;;5.03;90.65;100977.50;5061531;28;19928;-73
2023/02/13 07:06:34;;;;;;;;;;;;;;;5.29;90.34;100971.13;5059315;28;19925;-74
2023/02/13 07:09:01;;;;;;;;;;;;;;;5.09;89.65;100971.56;5067869;28;19923;-71
2023/02/13 07:11:27;;;;;;;;;;;;;;;5.24;90.29;100983.19;5070595;28;20518;-80
2023/02/13 07:13:52;;;;;;;;;;;;;;;5.19;90.27;100982.84;5060909;28;20061;-72
2023/02/13 07:16:17;;;;;;;;;;;;;;;5.40;89.62;100983.22;5060793;28;19921;-72
2023/02/13 07:18:43;;;;;;;;;;;;;;;5.44;89.09;100987.19;5060995;28;19916;-72
2023/02/13 07:21:08;;;;;;;;;;;;;;;5.51;88.92;100980.25;5058362;28;19999;-72
2023/02/13 07:23:33;;;;;;;;;;;;;;;5.27;88.48;100982.84;5057926;28;20023;-73
2023/02/13 07:25:59;;;;;;;;;;;;;;;5.45;89.21;100986.22;5056665;28;20012;-72
2023/02/13 07:28:24;;;;;;;;;;;;;;;5.30;88.85;100980.72;5057217;28;19952;-72
2023/02/13 07:30:50;;;;;;;;;;;;;;;5.47;89.39;100978.09;5053571;28;19920;-73
2023/02/13 07:33:15;;;;;;;;;;;;;;;5.51;88.63;100980.25;5050707;28;19952;-72
2023/02/13 07:35:45;;;;;;;;;;;;;;;5.46;89.12;100979.91;5059281;28;20019;-72
2023/02/13 07:38:10;;;;;;;;;;;;;;;5.31;88.95;100990.31;5048192;28;20014;-72
2023/02/13 07:40:35;;;;;;;;;;;;;;;5.44;89.11;100981.91;5053969;28;20019;-72
2023/02/13 07:43:01;;;;;;;;;;;;;;;5.09;90.65;100982.13;5064760;28;19951;-72
2023/02/13 07:45:26;;;;;;;;;;;;;;;5.26;89.77;100978.56;5068979;28;19931;-73
2023/02/13 07:47:53;;;;;;;;;;;;;;;5.17;89.77;100976.88;5061487;28;20436;-73
2023/02/13 07:50:18;;;;;;;;;;;;;;;5.34;89.62;100983.88;5067966;28;19930;-72
2023/02/13 07:52:51;;;;;;;;;;;;;;;5.36;88.68;100983.69;5065850;28;19924;-72
2023/02/13 07:55:16;;;;;;;;;;;;;;;5.12;89.50;100979.19;5061901;28;19999;-72
2023/02/13 07:57:41;;;;;;;;;;;;;;;5.18;90.96;100984.66;5064144;28;20592;-72
2023/02/13 08:00:07;;;;;;;;;;;;;;;5.10;91.39;100986.47;5057371;28;19935;-72
2023/02/13 08:02:32;;;;;;;;;;;;;;;5.27;89.80;100974.91;5057640;28;19931;-72
2023/02/13 08:04:57;;;;;;;;;;;;;;;5.15;90.14;100979.72;5064609;28;20091;-73
2023/02/13 08:07:23;;;;;;;;;;;;;;;4.90;90.50;100979.75;5068068;28;19917;-72
2023/02/13 08:12:33;;;;;;;;;;;;;;;5.33;89.74;100983.03;5063006;28;19927;-73
2023/02/13 08:14:59;;;;;;;;;;;;;;;5.23;89.79;100977.06;5056572;28;19927;-72
2023/02/13 08:17:24;;;;;;;;;;;;;;;5.39;89.95;100971.00;5065288;28;20336;-72
2023/02/13 08:19:49;;;;;;;;;;;;;;;5.31;90.15;100976.25;5066126;28;19947;-72
2023/02/13 08:22:14;;;;;;;;;;;;;;;5.11;90.37;100980.19;5066814;28;20003;-73
2023/02/13 08:24:40;;;;;;;;;;;;;;;5.14;90.63;100982.50;5060570;28;19929;-73
2023/02/13 08:27:10;;;;;;;;;;;;;;;5.22;90.84;100974.59;5061636;28;20232;-71
2023/02/13 08:29:35;;;;;;;;;;;;;;;5.10;91.11;100979.34;5062301;28;19917;-71
2023/02/13 08:32:00;;;;;;;;;;;;;;;4.96;91.06;100981.75;5060508;28;19921;-71
2023/02/13 08:34:26;;;;;;;;;;;;;;;5.29;89.89;100989.66;5067063;28;19920;-72
2023/02/13 08:36:51;;;;;;;;;;;;;;;5.30;90.12;100988.69;5063381;28;19924;-72
2023/02/13 08:39:16;;;;;;;;;;;;;;;5.44;90.09;100979.25;5067323;28;19920;-72
2023/02/13 08:41:42;;;;;;;;;;;;;;;5.12;91.64;100987.97;5068384;28;19970;-72
2023/02/13 08:44:08;;;;;;;;;;;;;;;5.24;89.97;100985.84;5061387;28;19982;-73
2023/02/13 08:46:33;;;;;;;;;;;;;;;5.30;91.83;100995.78;5057001;28;19924;-71
2023/02/13 08:48:58;;;;;;;;;;;;;;;5.49;90.62;100982.25;5059111;28;19950;-73
2023/02/13 08:51:23;;;;;;;;;;;;;;;5.57;89.85;100981.44;5056642;28;19929;-72
2023/02/13 08:53:49;;;;;;;;;;;;;;;5.36;90.40;100983.69;5051148;28;20304;-72
2023/02/13 08:56:14;;;;;;;;;;;;;;;5.39;89.86;100975.44;5060494;28;20388;-72
2023/02/13 08:58:39;;;;;;;;;;;;;;;5.35;90.32;100980.25;5055772;28;20324;-72
2023/02/13 09:01:05;;;;;;;;;;;;;;;5.40;89.69;100977.91;5062618;28;19927;-71
2023/02/13 09:03:31;;;;;;;;;;;;;;;5.38;89.93;100985.19;5064223;28;21142;-72
2023/02/13 09:06:00;;;;;;;;;;;;;;;5.51;89.80;100980.25;5064793;28;20429;-71
2023/02/13 09:08:25;;;;;;;;;;;;;;;5.10;91.28;100981.16;5065255;28;19970;-72
2023/02/13 09:10:55;;;;;;;;;;;;;;;5.49;90.25;100976.94;5066173;28;19921;-72
2023/02/13 09:13:20;;;;;;;;;;;;;;;5.54;90.38;100981.75;5063204;28;19920;-72
2023/02/13 09:15:46;;;;;;;;;;;;;;;5.42;91.31;100996.31;5059140;28;20339;-72
2023/02/13 09:18:11;;;;;;;;;;;;;;;5.40;90.78;100985.03;5064787;28;19955;-72
2023/02/13 09:20:36;;;;;;;;;;;;;;;5.42;91.29;100986.53;5066817;28;19921;-72
2023/02/13 09:23:01;;;;;;;;;;;;;;;5.30;90.40;100988.69;5068594;28;19956;-72
2023/02/13 09:25:27;;;;;;;;;;;;;;;5.49;90.08;100979.59;5067462;28;19934;-73
2023/02/13 09:27:52;;;;;;;;;;;;;;;5.49;89.80;100974.31;5069067;28;19955;-72
2023/02/13 09:30:22;;;;;;;;;;;;;;;5.44;89.27;100979.25;5069189;28;19979;-71
2023/02/13 09:32:48;;;;;;;;;;;;;;;5.46;90.49;100979.91;5070092;28;20019;-72
2023/02/13 09:35:14;;;;;;;;;;;;;;;5.42;90.52;100972.50;5062683;28;19948;-73
2023/02/13 09:37:39;;;;;;;;;;;;;;;5.42;90.11;100981.22;5065098;28;19928;-72
2023/02/13 09:40:05;;;;;;;;;;;;;;;5.47;90.42;100978.94;5064850;28;19925;-72
2023/02/13 09:42:32;;;;;;;;;;;;;;;5.55;89.97;100981.59;5057731;28;19982;-72
2023/02/13 09:45:02;;;;;;;;;;;;;;;5.59;89.26;100984.75;5065724;28;20043;-73
2023/02/13 09:47:33;;;;;;;;;;;;;;;5.73;89.25;100984.91;5065156;28;19922;-72
2023/02/13 09:50:04;;;;;;;;;;;;;;;5.80;89.36;100985.94;5061935;28;20397;-73
2023/02/13 09:52:34;;;;;;;;;;;;;;;5.65;90.25;100995.53;5065242;28;19924;-73
2023/02/13 09:55:00;;;;;;;;;;;;;;;5.81;89.28;100987.56;5065511;28;19978;-73
2023/02/13 09:57:44;;;;;;;;;;;;;;;5.87;88.81;101000.22;5066624;28;19932;-72
2023/02/13 10:00:14;;;;;;;;;;;;;;;5.73;89.54;100989.38;5066295;28;20000;-73
2023/02/13 10:02:43;;;;;;;;;;;;;;;5.72;89.20;100988.53;5058170;28;19917;-73
2023/02/13 10:05:09;;;;;;;;;;;;;;;5.86;88.54;100990.59;5066719;28;19928;-72
2023/02/13 10:07:45;;;;;;;;;;;;;;;5.68;90.62;100981.94;5070414;28;19951;-72
2023/02/13 10:10:24;;;;;;;;;;;;;;;5.50;90.56;100986.56;5063476;28;21034;-72
2023/02/13 10:12:56;;;;;;;;;;;;;;;5.90;89.56;100986.59;5064508;28;19916;-72
2023/02/13 10:15:21;;;;;;;;;;;;;;;5.91;89.39;100987.44;5067930;28;19930;-73
2023/02/13 10:17:52;;;;;;;;;;;;;;;5.83;90.25;100985.56;5066365;28;20003;-72
2023/02/13 10:20:23;;;;;;;;;;;;;;;5.96;89.50;100990.44;5068776;28;19916;-72
2023/02/13 10:22:52;;;;;;;;;;;;;;;5.81;90.31;100997.34;5059855;28;20392;-73
2023/02/13 10:28:37;;;;;;;;;;;;;;;5.93;89.38;100977.50;5058108;28;20396;-71
2023/02/13 10:31:08;;;;;;;;;;;;;;;6.13;88.17;100985.94;5061577;28;20070;-71
2023/02/13 10:33:37;;;;;;;;;;;;;;;6.10;89.44;100983.59;5059208;28;19917;-73
2023/02/13 10:36:14;;;;;;;;;;;;;;;6.26;87.86;100980.94;5061362;28;19971;-72
2023/02/13 10:38:44;;;;;;;;;;;;;;;6.17;87.97;100990.75;5055499;28;19916;-72
2023/02/13 10:41:21;;;;;;;;;;;;;;;6.29;88.13;100980.63;5062305;28;19927;-71
2023/02/13 10:44:05;;;;;;;;;;;;;;;6.38;87.58;100983.06;5058900;28;20389;-73
2023/02/13 10:46:56;;;;;;;;;;;;;;;6.40;87.91;100974.97;5062400;28;19970;-73
2023/02/13 10:49:21;;;;;;;;;;;;;;;6.32;88.04;100977.63;5051938;28;19916;-72
2023/02/13 10:51:52;;;;;;;;;;;;;;;6.47;86.75;100974.09;5069935;28;19923;-73
2023/02/13 10:54:27;;;;;;;;;;;;;;;6.44;86.83;100973.63;5067550;28;19917;-72
2023/02/13 10:56:55;;;;;;;;;;;;;;;6.59;86.83;100975.41;5067360;28;21321;-72
2023/02/13 10:59:21;;;;;;;;;;;;;;;6.49;86.79;100961.50;5069385;28;19916;-72
2023/02/13 11:01:55;;;;;;;;;;;;;;;6.53;87.40;100962.00;5064714;28;19946;-73
2023/02/13 11:04:20;;;;;;;;;;;;;;;6.50;87.90;100955.22;5057330;28;19942;-72
2023/02/13 11:06:58;;;;;;;;;;;;;;;6.70;86.82;100960.94;5067130;28;20357;-73
2023/02/13 11:09:24;;;;;;;;;;;;;;;6.57;86.26;100955.34;5063525;28;20281;-72
2023/02/13 11:11:49;;;;;;;;;;;;;;;6.73;86.13;100942.00;5064577;28;19923;-73
2023/02/13 11:14:14;;;;;;;;;;;;;;;6.36;86.23;100944.44;5063954;28;19916;-73
2023/02/13 11:17:00;;;;;;;;;;;;;;;6.59;86.77;100935.63;5065702;28;19928;-73
2023/02/13 11:19:30;;;;;;;;;;;;;;;6.48;87.24;100937.81;5062286;28;19924;-72
2023/02/13 11:22:04;;;;;;;;;;;;;;;6.65;86.78;100939.41;5063381;28;19960;-73
2023/02/13 11:24:30;;;;;;;;;;;;;;;7.00;86.86;100938.91;5062148;28;20427;-73
2023/02/13 11:27:00;;;;;;;;;;;;;;;7.18;86.36;100934.16;5064436;28;19916;-73
2023/02/13 11:29:28;;;;;;;;;;;;;;;6.65;84.47;100939.41;5063902;28;19920;-73
2023/02/13 11:32:11;;;;;;;;;;;;;;;6.86;86.70;100936.97;5064903;28;19955;-72
2023/02/13 11:34:37;;;;;;;;;;;;;;;7.13;86.18;100933.03;5065164;28;19976;-71
2023/02/13 11:37:11;;;;;;;;;;;;;;;7.21;85.79;100933.78;5064579;28;19924;-73
2023/02/13 11:39:37;;;;;;;;;;;;;;;7.22;84.23;100932.81;5065822;28;19962;-73
2023/02/13 11:42:02;;;;;;;;;;;;;;;7.57;85.83;100934.06;5041412;28;20302;-71
2023/02/13 11:44:29;;;;;;;;;;;;;;;7.46;84.98;100929.16;5061185;28;20558;-72
2023/02/13 11:46:59;;;;;;;;;;;;;;;7.62;85.33;100921.06;5054241;28;20027;-71
2023/02/13 11:49:26;;;;;;;;;;;;;;;7.38;83.85;100921.25;5066054;28;19962;-71
2023/02/13 11:51:55;;;;;;;;;;;;;;;7.24;82.86;100928.13;5052455;28;20369;-72
2023/02/13 11:54:26;;;;;;;;;;;;;;;7.09;84.16;100929.91;5059762;28;19931;-71
2023/02/13 11:56:56;;;;;;;;;;;;;;;7.28;84.09;100918.81;5064488;28;20007;-73
2023/02/13 11:59:23;;;;;;;;;;;;;;;7.11;84.49;100919.09;5071064;28;20304;-72
2023/02/13 12:02:00;;;;;;;;;;;;;;;6.90;84.67;100929.50;5060142;28;20385;-72
2023/02/13 12:04:25;;;;;;;;;;;;;;;7.08;84.84;100912.28;5061964;28;19929;-71
2023/02/13 12:06:59;;;;;;;;;;;;;;;7.10;84.59;100918.25;5067999;28;19916;-73
2023/02/13 12:09:24;;;;;;;;;;;;;;;7.00;85.05;100920.31;5058196;28;19924;-72
2023/02/13 12:11:53;;;;;;;;;;;;;;;7.00;83.84;100922.13;5067670;28;19962;-71
2023/02/13 12:14:24;;;;;;;;;;;;;;;6.89;84.01;100915.41;5060538;28;20167;-71
2023/02/13 12:16:53;;;;;;;;;;;;;;;7.37;86.03;100907.13;5063510;28;20444;-72
2023/02/13 12:19:24;;;;;;;;;;;;;;;7.22;83.79;100900.09;5064632;28;19923;-72
2023/02/13 12:22:03;;;;;;;;;;;;;;;7.02;83.46;100889.09;5064726;28;19916;-71
2023/02/13 12:24:31;;;;;;;;;;;;;;;7.08;83.86;100893.72;5067272;28;20378;-71
2023/02/13 12:27:09;;;;;;;;;;;;;;;7.48;85.43;100888.13;5066758;28;19921;-71
2023/02/13 12:29:53;;;;;;;;;;;;;;;7.53;82.93;100876.97;5068015;28;19964;-71
2023/02/13 12:32:19;;;;;;;;;;;;;;;7.21;82.46;100867.41;5054599;28;20017;-71
2023/02/13 12:34:44;;;;;;;;;;;;;;;6.85;83.05;100871.63;5063778;28;19938;-71
2023/02/13 12:37:31;;;;;;;;;;;;;;;7.11;83.79;100873.94;5059510;28;19935;-71
2023/02/13 12:40:16;;;;;;;;;;;;;;;7.77;86.97;100867.94;5064513;28;19917;-71
2023/02/13 12:42:41;;;;;;;;;;;;;;;7.12;83.20;100857.84;5062830;28;19969;-71
2023/02/13 12:45:30;;;;;;;;;;;;;;;6.75;84.75;100861.22;5058000;28;19925;-71
2023/02/13 12:48:08;;;;;;;;;;;;;;;6.93;84.84;100862.78;5065273;28;20461;-71
2023/02/13 12:50:39;;;;;;;;;;;;;;;6.83;84.40;100863.03;5065377;28;19917;-71
2023/02/13 12:53:10;;;;;;;;;;;;;;;6.56;84.88;100860.84;5064307;28;19921;-71
2023/02/13 12:55:53;;;;;;;;;;;;;;;6.59;85.22;100860.50;5066665;28;19925;-71
2023/02/13 12:58:41;;;;;;;;;;;;;;;6.67;84.65;100865.75;5049457;28;19971;-71
2023/02/13 13:01:23;;;;;;;;;;;;;;;6.58;85.72;100858.84;5056405;28;19921;-71
2023/02/13 13:03:54;;;;;;;;;;;;;;;6.58;85.98;100853.53;5063183;28;20410;-71
2023/02/13 13:06:35;;;;;;;;;;;;;;;6.60;85.76;100855.00;5057439;28;19931;-71
2023/02/13 13:09:00;;;;;;;;;;;;;;;6.39;85.62;100844.19;5065219;28;19916;-71
2023/02/13 13:11:33;;;;;;;;;;;;;;;6.42;86.34;100840.34;5066314;28;20400;-71
2023/02/13 13:14:07;;;;;;;;;;;;;;;6.49;86.68;100850.09;5064080;28;20644;-71
2023/02/13 13:16:35;;;;;;;;;;;;;;;6.93;89.20;100834.41;5068797;28;19916;-71
2023/02/13 13:19:19;;;;;;;;;;;;;;;7.57;88.82;100831.25;5061338;28;20014;-71
2023/02/13 13:21:51;;;;;;;;;;;;;;;6.78;84.31;100834.34;5062399;28;20293;-71
2023/02/13 13:24:26;;;;;;;;;;;;;;;6.46;85.77;100836.34;5062301;28;20300;-71
2023/02/13 13:26:53;;;;;;;;;;;;;;;7.13;89.01;100835.59;5061582;28;19925;-71
2023/02/13 13:29:20;;;;;;;;;;;;;;;7.86;86.35;100837.63;5064269;28;20016;-71
2023/02/13 13:31:53;;;;;;;;;;;;;;;7.35;86.63;100832.09;5063931;28;20324;-72
2023/02/13 13:34:21;;;;;;;;;;;;;;;6.68;84.50;100835.59;5059781;28;20349;-71
2023/02/13 13:36:58;;;;;;;;;;;;;;;6.92;85.02;100827.47;5062401;28;20657;-71
2023/02/13 13:39:26;;;;;;;;;;;;;;;7.68;86.51;100826.50;5066134;28;19921;-71
2023/02/13 13:41:53;;;;;;;;;;;;;;;6.75;85.40;100836.50;5069993;28;21489;-71